createdAt,value
2016-02-01T19:06:09.440Z,18.08
2016-02-01T19:07:09.363Z,18.18
2016-02-01T19:08:09.350Z,18.23
2016-02-01T19:09:09.260Z,18.18
2016-02-01T19:10:09.215Z,18.11
2016-02-01T19:11:09.155Z,18.08
2016-02-01T19:12:09.126Z,18.18
2016-02-01T19:13:09.070Z,18.03
2016-02-01T19:14:09.025Z,18.01
2016-02-01T19:15:08.981Z,18.11
2016-02-01T19:16:08.921Z,18.13
2016-02-01T19:17:08.876Z,18.03
2016-02-01T19:18:08.834Z,18.13
2016-02-01T19:19:08.789Z,18.13
2016-02-01T19:20:08.729Z,18.05
2016-02-01T19:21:08.700Z,18.11
2016-02-01T19:22:08.643Z,18.11
2016-02-01T19:23:08.583Z,18.15
2016-02-01T19:24:08.538Z,18.05
2016-02-01T19:25:08.511Z,18.07
2016-02-01T19:26:08.466Z,18.07
2016-02-01T19:27:08.412Z,18.22
2016-02-01T19:28:08.367Z,18.31
2016-02-01T19:29:08.307Z,18.25
2016-02-01T19:30:08.265Z,18.19
2016-02-01T19:31:08.221Z,18.25
2016-02-01T19:32:08.177Z,18.22
2016-02-01T19:33:08.133Z,18.18
2016-02-01T19:34:08.073Z,18.22
2016-02-01T19:35:08.044Z,18.26
2016-02-01T19:36:07.984Z,18.29
2016-02-01T19:37:07.940Z,18.26
2016-02-01T19:38:07.911Z,18.26
2016-02-01T19:39:07.839Z,18.25
2016-02-01T19:40:07.810Z,18.33
2016-02-01T19:41:07.751Z,18.33
2016-02-01T19:42:07.707Z,18.29
2016-02-01T19:43:07.648Z,18.22
2016-02-01T19:44:07.604Z,18.28
2016-02-01T19:45:07.575Z,18.19
2016-02-01T19:46:07.531Z,18.34
2016-02-01T19:47:07.487Z,18.23
2016-02-01T19:48:07.428Z,18.2
2016-02-01T19:49:07.384Z,18.19
2016-02-01T19:50:07.340Z,18.38
2016-02-01T19:51:07.295Z,18.34
2016-02-01T19:52:07.251Z,18.25
2016-02-01T19:53:07.207Z,18.4
2016-02-01T19:54:07.162Z,18.35
2016-02-01T19:55:07.118Z,18.38
2016-02-01T19:56:07.075Z,18.35
2016-02-01T19:57:07.015Z,18.35
2016-02-01T19:58:06.986Z,18.35
2016-02-01T19:59:06.943Z,18.41
2016-02-01T20:00:06.900Z,18.35
2016-02-01T20:01:06.842Z,18.35
2016-02-01T20:02:06.781Z,18.4
2016-02-01T20:03:06.752Z,18.41
2016-02-01T20:04:06.711Z,18.4
2016-02-01T20:05:06.667Z,18.4
2016-02-01T20:06:06.607Z,18.52
2016-02-01T20:07:06.563Z,18.56
2016-02-01T20:08:06.519Z,18.53
2016-02-01T20:09:06.477Z,18.56
2016-02-01T20:10:06.432Z,18.53
2016-02-01T20:11:06.388Z,18.45
2016-02-01T20:12:06.329Z,18.45
2016-02-01T20:13:06.285Z,18.49
2016-02-01T20:14:06.255Z,18.5
2016-02-01T20:15:06.196Z,18.55
2016-02-01T20:16:06.152Z,18.5
2016-02-01T20:17:06.092Z,18.55
2016-02-01T20:18:06.063Z,18.56
2016-02-01T20:19:06.019Z,18.49
2016-02-01T20:20:05.976Z,18.56
2016-02-01T20:21:05.932Z,18.44
2016-02-01T20:22:05.887Z,18.56
2016-02-01T20:23:05.843Z,18.52
2016-02-01T20:24:05.799Z,18.53
2016-02-01T20:25:05.756Z,18.52
2016-02-01T20:26:05.712Z,18.5
2016-02-01T20:27:05.653Z,18.53
2016-02-01T20:28:05.608Z,18.5
2016-02-01T20:29:05.583Z,18.5
2016-02-01T20:30:05.523Z,18.56
2016-02-01T20:31:05.479Z,18.56
2016-02-01T20:32:05.560Z,18.59
2016-02-01T20:33:05.390Z,18.53
2016-02-01T20:34:05.348Z,18.56
2016-02-01T20:35:05.305Z,18.56
2016-02-01T20:36:05.260Z,18.63
2016-02-01T20:37:05.216Z,18.65
2016-02-01T20:38:05.172Z,18.63
2016-02-01T20:39:05.567Z,18.8
2016-02-01T20:40:05.069Z,18.68
2016-02-01T20:41:05.026Z,18.73
2016-02-01T20:42:04.981Z,18.73
2016-02-01T20:43:04.937Z,18.71
2016-02-01T20:44:04.893Z,18.71
2016-02-01T20:45:04.848Z,18.75
2016-02-01T20:46:04.820Z,18.74
2016-02-01T20:47:04.760Z,18.71
2016-02-01T20:48:04.717Z,18.75
2016-02-01T20:49:04.672Z,18.74
2016-02-01T20:50:04.629Z,18.8
2016-02-01T20:51:04.585Z,18.71
2016-02-01T20:52:04.541Z,18.71
2016-02-01T20:53:04.496Z,18.77
2016-02-01T20:54:04.436Z,18.77
2016-02-01T20:55:04.410Z,18.73
2016-02-01T20:56:04.397Z,18.71
2016-02-01T20:57:04.322Z,18.74
2016-02-01T20:58:04.277Z,18.71
2016-02-01T20:59:04.218Z,18.83
2016-02-01T21:00:04.221Z,18.84
2016-02-01T21:01:04.131Z,18.71
2016-02-01T21:02:04.088Z,18.75
2016-02-01T21:03:04.059Z,18.88
2016-02-01T21:04:04.047Z,18.89
2016-02-01T21:05:03.955Z,18.78
2016-02-01T21:06:03.911Z,18.86
2016-02-01T21:07:03.867Z,18.83
2016-02-01T21:08:03.823Z,18.89
2016-02-01T21:09:03.778Z,18.77
2016-02-01T21:10:03.735Z,18.77
2016-02-01T21:11:03.693Z,18.81
2016-02-01T21:12:03.649Z,18.84
2016-02-01T21:13:03.604Z,18.81
2016-02-01T21:14:03.562Z,18.8
2016-02-01T21:15:03.518Z,18.83
2016-02-01T21:16:03.459Z,18.84
2016-02-01T21:17:03.415Z,18.81
2016-02-01T21:18:03.385Z,18.84
2016-02-01T21:19:03.357Z,18.89
2016-02-01T21:20:03.291Z,18.93
2016-02-01T21:21:03.248Z,18.93
2016-02-01T21:22:03.203Z,18.92
2016-02-01T21:23:03.158Z,18.81
2016-02-01T21:24:03.115Z,18.9
2016-02-01T21:25:03.070Z,19.04
2016-02-01T21:26:03.011Z,18.93
2016-02-01T21:27:02.982Z,18.99
2016-02-01T21:28:02.938Z,18.98
2016-02-01T21:29:02.878Z,19
2016-02-01T21:30:02.834Z,18.99
2016-02-01T21:31:02.792Z,18.99
2016-02-01T21:32:02.764Z,18.98
2016-02-01T21:33:02.705Z,18.99
2016-02-01T21:34:02.675Z,19.08
2016-02-01T21:35:02.632Z,18.99
2016-02-01T21:36:02.575Z,18.99
2016-02-01T21:37:02.547Z,19
2016-02-01T21:38:02.486Z,19.19
2016-02-01T21:39:02.442Z,19.09
2016-02-01T21:40:02.399Z,19.14
2016-02-01T21:41:02.356Z,19.36
2016-02-01T21:42:02.312Z,19.49
2016-02-01T21:43:02.315Z,19.63
2016-02-01T21:44:02.224Z,19.56
2016-02-01T21:45:02.195Z,19.56
2016-02-01T21:46:02.137Z,19.56
2016-02-01T21:47:02.092Z,19.62
2016-02-01T21:48:02.050Z,19.52
2016-02-01T21:49:02.007Z,19.44
2016-02-01T21:50:01.963Z,19.3
2016-02-01T21:51:01.902Z,19.34
2016-02-01T21:52:01.857Z,19.19
2016-02-01T21:53:01.831Z,19.12
2016-02-01T21:54:01.770Z,19.09
2016-02-01T21:55:01.742Z,19.14
2016-02-01T21:56:01.682Z,19.11
2016-02-01T21:57:01.640Z,19.27
2016-02-01T21:58:01.596Z,19.12
2016-02-01T21:59:01.552Z,19.12
2016-02-01T22:00:01.523Z,19.09
2016-02-01T22:01:01.465Z,19.12
2016-02-01T22:02:01.438Z,19
2016-02-01T22:03:01.378Z,19
2016-02-01T22:04:01.334Z,19.07
2016-02-01T22:05:01.305Z,19.11
2016-02-01T22:06:01.246Z,19.14
2016-02-01T22:07:01.201Z,19.12
2016-02-01T22:08:01.156Z,19.08
2016-02-01T22:09:01.112Z,19.14
2016-02-01T22:10:01.085Z,19.09
2016-02-01T22:11:01.040Z,19.19
2016-02-01T22:12:00.980Z,19.18
2016-02-01T22:13:00.951Z,19.24
2016-02-01T22:14:00.891Z,19.31
